Pollock, Louisiana
Current Conditions -  °F | °C
As of 12:53 AM on Monday 24 Nov 2014 (Local Time) from KESF Reporting Station
Clear Clear  
Wind Chill: 62°   Ceiling: Unl
Heat Index: 62°   Visibility: 10mi
Dew Point: 56°   Wind: 13mph
Humidity: 80%   Direction: 250°WSW
Pressure: 29.68"   Gusts: NA
Location:  31.53°N, 92.41°W
Report Text: KESF 240653Z AUTO 25011KT 10SM CLR 17/13 A2968 RMK AO2 SLP051 T01670133
Loading
Personal Weather Stations






























Interactive Weather Map New forecast layout! Learn more

10-Day Weather Forecast

Advertisements
Track Severe Weather on mobile